<?xml version='1.0' encoding='UTF-8'?>
<gpx version="1.1" creator="https://www.komoot.de" xmlns="http://www.topografix.com/GPX/1/1" xmlns:xsi="http://www.w3.org/2001/XMLSchema-instance" xsi:schemaLocation="http://www.topografix.com/GPX/1/1 http://www.topografix.com/GPX/1/1/gpx.xsd">
  <metadata>
    <name>DVV Permanenter Wanderweg 21.12.2021 Leinburg/Diepersdorf "Rund um den Birkensee" 5-km-Strecke</name>
    <author>
      <link href="https://www.komoot.de">
        <text>komoot</text>
        <type>text/html</type>
      </link>
    </author>
  </metadata>
  <trk>
    <name>DVV Permanenter Wanderweg 21.12.2021 Leinburg/Diepersdorf "Rund um den Birkensee" 5-km-Strecke</name>
    <trkseg>
      <trkpt lat="49.461094" lon="11.288987">
        <ele>429.078594</ele>
        <time>2021-12-21T12:40:21.944Z</time>
      </trkpt>
      <trkpt lat="49.461115" lon="11.289344">
        <ele>429.078594</ele>
        <time>2021-12-21T12:41:15.631Z</time>
      </trkpt>
      <trkpt lat="49.461138" lon="11.289494">
        <ele>429.078594</ele>
        <time>2021-12-21T12:41:22.620Z</time>
      </trkpt>
      <trkpt lat="49.461148" lon="11.289646">
        <ele>429.078594</ele>
        <time>2021-12-21T12:41:29.621Z</time>
      </trkpt>
      <trkpt lat="49.461162" lon="11.289795">
        <ele>429.078594</ele>
        <time>2021-12-21T12:41:35.617Z</time>
      </trkpt>
      <trkpt lat="49.461183" lon="11.289931">
        <ele>429.078594</ele>
        <time>2021-12-21T12:41:41.624Z</time>
      </trkpt>
      <trkpt lat="49.461183" lon="11.290084">
        <ele>429.078594</ele>
        <time>2021-12-21T12:41:48.632Z</time>
      </trkpt>
      <trkpt lat="49.461189" lon="11.290229">
        <ele>429.078594</ele>
        <time>2021-12-21T12:41:54.637Z</time>
      </trkpt>
      <trkpt lat="49.461232" lon="11.290367">
        <ele>429.122765</ele>
        <time>2021-12-21T12:42:02.634Z</time>
      </trkpt>
      <trkpt lat="49.461337" lon="11.290342">
        <ele>429.431734</ele>
        <time>2021-12-21T12:42:11.636Z</time>
      </trkpt>
      <trkpt lat="49.461433" lon="11.290321">
        <ele>429.713704</ele>
        <time>2021-12-21T12:42:17.618Z</time>
      </trkpt>
      <trkpt lat="49.461532" lon="11.290329">
        <ele>430.001988</ele>
        <time>2021-12-21T12:42:23.621Z</time>
      </trkpt>
      <trkpt lat="49.461635" lon="11.290331">
        <ele>430.301530</ele>
        <time>2021-12-21T12:42:29.627Z</time>
      </trkpt>
      <trkpt lat="49.461725" lon="11.290328">
        <ele>430.563307</ele>
        <time>2021-12-21T12:42:34.615Z</time>
      </trkpt>
      <trkpt lat="49.461821" lon="11.290349">
        <ele>430.845278</ele>
        <time>2021-12-21T12:42:40.625Z</time>
      </trkpt>
      <trkpt lat="49.461923" lon="11.290385">
        <ele>431.149592</ele>
        <time>2021-12-21T12:42:47.626Z</time>
      </trkpt>
      <trkpt lat="49.462018" lon="11.290404">
        <ele>431.428171</ele>
        <time>2021-12-21T12:42:53.615Z</time>
      </trkpt>
      <trkpt lat="49.462134" lon="11.290403">
        <ele>431.765499</ele>
        <time>2021-12-21T12:42:57.646Z</time>
      </trkpt>
      <trkpt lat="49.462237" lon="11.290436">
        <ele>432.071442</ele>
        <time>2021-12-21T12:43:02.615Z</time>
      </trkpt>
      <trkpt lat="49.462330" lon="11.290439">
        <ele>432.341941</ele>
        <time>2021-12-21T12:43:10.616Z</time>
      </trkpt>
      <trkpt lat="49.462428" lon="11.290454">
        <ele>432.628326</ele>
        <time>2021-12-21T12:43:16.653Z</time>
      </trkpt>
      <trkpt lat="49.462534" lon="11.290467">
        <ele>432.937546</ele>
        <time>2021-12-21T12:43:19.621Z</time>
      </trkpt>
      <trkpt lat="49.462819" lon="11.290564">
        <ele>433.786346</ele>
        <time>2021-12-21T12:43:49.619Z</time>
      </trkpt>
      <trkpt lat="49.462884" lon="11.290459">
        <ele>434.060407</ele>
        <time>2021-12-21T12:43:54.623Z</time>
      </trkpt>
      <trkpt lat="49.462977" lon="11.290419">
        <ele>434.303418</ele>
        <time>2021-12-21T12:43:57.640Z</time>
      </trkpt>
      <trkpt lat="49.463022" lon="11.290273">
        <ele>434.251019</ele>
        <time>2021-12-21T12:44:02.618Z</time>
      </trkpt>
      <trkpt lat="49.463071" lon="11.290131">
        <ele>434.198883</ele>
        <time>2021-12-21T12:44:08.650Z</time>
      </trkpt>
      <trkpt lat="49.463125" lon="11.290020">
        <ele>434.153921</ele>
        <time>2021-12-21T12:44:14.623Z</time>
      </trkpt>
      <trkpt lat="49.463193" lon="11.289905">
        <ele>434.103505</ele>
        <time>2021-12-21T12:44:21.628Z</time>
      </trkpt>
      <trkpt lat="49.463277" lon="11.289826">
        <ele>434.054384</ele>
        <time>2021-12-21T12:44:27.628Z</time>
      </trkpt>
      <trkpt lat="49.463317" lon="11.289697">
        <ele>434.008035</ele>
        <time>2021-12-21T12:44:35.621Z</time>
      </trkpt>
      <trkpt lat="49.463410" lon="11.289638">
        <ele>433.957843</ele>
        <time>2021-12-21T12:44:41.621Z</time>
      </trkpt>
      <trkpt lat="49.463500" lon="11.289592">
        <ele>433.910526</ele>
        <time>2021-12-21T12:44:46.630Z</time>
      </trkpt>
      <trkpt lat="49.463585" lon="11.289538">
        <ele>433.864642</ele>
        <time>2021-12-21T12:44:50.652Z</time>
      </trkpt>
      <trkpt lat="49.463682" lon="11.289483">
        <ele>433.813063</ele>
        <time>2021-12-21T12:44:53.618Z</time>
      </trkpt>
      <trkpt lat="49.463775" lon="11.289422">
        <ele>433.762621</ele>
        <time>2021-12-21T12:44:58.658Z</time>
      </trkpt>
      <trkpt lat="49.463875" lon="11.289383">
        <ele>433.711149</ele>
        <time>2021-12-21T12:45:04.617Z</time>
      </trkpt>
      <trkpt lat="49.463972" lon="11.289355">
        <ele>433.661907</ele>
        <time>2021-12-21T12:45:09.618Z</time>
      </trkpt>
      <trkpt lat="49.464079" lon="11.289358">
        <ele>433.608511</ele>
        <time>2021-12-21T12:45:15.649Z</time>
      </trkpt>
      <trkpt lat="49.464183" lon="11.289370">
        <ele>433.556475</ele>
        <time>2021-12-21T12:45:21.617Z</time>
      </trkpt>
      <trkpt lat="49.464282" lon="11.289372">
        <ele>433.507076</ele>
        <time>2021-12-21T12:45:27.617Z</time>
      </trkpt>
      <trkpt lat="49.464361" lon="11.289286">
        <ele>433.458791</ele>
        <time>2021-12-21T12:45:35.617Z</time>
      </trkpt>
      <trkpt lat="49.464460" lon="11.289249">
        <ele>433.428233</ele>
        <time>2021-12-21T12:45:40.616Z</time>
      </trkpt>
      <trkpt lat="49.464559" lon="11.289235">
        <ele>433.660105</ele>
        <time>2021-12-21T12:45:45.616Z</time>
      </trkpt>
      <trkpt lat="49.464650" lon="11.289241">
        <ele>433.872540</ele>
        <time>2021-12-21T12:45:51.648Z</time>
      </trkpt>
      <trkpt lat="49.464753" lon="11.289186">
        <ele>434.126823</ele>
        <time>2021-12-21T12:46:00.620Z</time>
      </trkpt>
      <trkpt lat="49.464856" lon="11.289154">
        <ele>434.371899</ele>
        <time>2021-12-21T12:46:06.620Z</time>
      </trkpt>
      <trkpt lat="49.464951" lon="11.289132">
        <ele>434.595963</ele>
        <time>2021-12-21T12:46:12.652Z</time>
      </trkpt>
      <trkpt lat="49.465048" lon="11.289137">
        <ele>434.822324</ele>
        <time>2021-12-21T12:46:19.654Z</time>
      </trkpt>
      <trkpt lat="49.465145" lon="11.289122">
        <ele>435.049698</ele>
        <time>2021-12-21T12:46:24.660Z</time>
      </trkpt>
      <trkpt lat="49.465219" lon="11.289026">
        <ele>435.275446</ele>
        <time>2021-12-21T12:46:36.661Z</time>
      </trkpt>
      <trkpt lat="49.465318" lon="11.288961">
        <ele>435.526487</ele>
        <time>2021-12-21T12:46:40.633Z</time>
      </trkpt>
      <trkpt lat="49.465402" lon="11.288906">
        <ele>435.739402</ele>
        <time>2021-12-21T12:46:44.617Z</time>
      </trkpt>
      <trkpt lat="49.465484" lon="11.288800">
        <ele>435.989186</ele>
        <time>2021-12-21T12:46:51.642Z</time>
      </trkpt>
      <trkpt lat="49.465550" lon="11.288688">
        <ele>436.218350</ele>
        <time>2021-12-21T12:46:56.632Z</time>
      </trkpt>
      <trkpt lat="49.465612" lon="11.288557">
        <ele>436.463989</ele>
        <time>2021-12-21T12:47:02.632Z</time>
      </trkpt>
      <trkpt lat="49.465708" lon="11.288566">
        <ele>436.688306</ele>
        <time>2021-12-21T12:47:07.650Z</time>
      </trkpt>
      <trkpt lat="49.465806" lon="11.288531">
        <ele>436.922949</ele>
        <time>2021-12-21T12:47:10.620Z</time>
      </trkpt>
      <trkpt lat="49.465933" lon="11.288502">
        <ele>437.222396</ele>
        <time>2021-12-21T12:47:13.615Z</time>
      </trkpt>
      <trkpt lat="49.466035" lon="11.288476">
        <ele>437.463533</ele>
        <time>2021-12-21T12:47:17.625Z</time>
      </trkpt>
      <trkpt lat="49.466026" lon="11.288309">
        <ele>437.882260</ele>
        <time>2021-12-21T12:47:22.625Z</time>
      </trkpt>
      <trkpt lat="49.466001" lon="11.288146">
        <ele>438.512802</ele>
        <time>2021-12-21T12:47:26.618Z</time>
      </trkpt>
      <trkpt lat="49.466077" lon="11.288056">
        <ele>439.068373</ele>
        <time>2021-12-21T12:47:30.631Z</time>
      </trkpt>
      <trkpt lat="49.466122" lon="11.287931">
        <ele>439.606368</ele>
        <time>2021-12-21T12:47:35.680Z</time>
      </trkpt>
      <trkpt lat="49.466023" lon="11.287854">
        <ele>440.248991</ele>
        <time>2021-12-21T12:47:41.617Z</time>
      </trkpt>
      <trkpt lat="49.465980" lon="11.287730">
        <ele>440.778144</ele>
        <time>2021-12-21T12:47:46.620Z</time>
      </trkpt>
      <trkpt lat="49.466020" lon="11.287598">
        <ele>441.326485</ele>
        <time>2021-12-21T12:47:56.652Z</time>
      </trkpt>
      <trkpt lat="49.466058" lon="11.287458">
        <ele>441.897698</ele>
        <time>2021-12-21T12:48:03.631Z</time>
      </trkpt>
      <trkpt lat="49.466009" lon="11.287313">
        <ele>442.513004</ele>
        <time>2021-12-21T12:48:08.654Z</time>
      </trkpt>
      <trkpt lat="49.466031" lon="11.287177">
        <ele>443.040659</ele>
        <time>2021-12-21T12:48:13.619Z</time>
      </trkpt>
      <trkpt lat="49.466011" lon="11.287029">
        <ele>443.609787</ele>
        <time>2021-12-21T12:48:18.616Z</time>
      </trkpt>
      <trkpt lat="49.466105" lon="11.286960">
        <ele>444.213130</ele>
        <time>2021-12-21T12:48:24.621Z</time>
      </trkpt>
      <trkpt lat="49.466187" lon="11.286865">
        <ele>444.807760</ele>
        <time>2021-12-21T12:48:30.619Z</time>
      </trkpt>
      <trkpt lat="49.466282" lon="11.286861">
        <ele>445.358311</ele>
        <time>2021-12-21T12:48:35.627Z</time>
      </trkpt>
      <trkpt lat="49.466368" lon="11.286793">
        <ele>445.918448</ele>
        <time>2021-12-21T12:48:39.644Z</time>
      </trkpt>
      <trkpt lat="49.466454" lon="11.286679">
        <ele>446.576037</ele>
        <time>2021-12-21T12:48:43.661Z</time>
      </trkpt>
      <trkpt lat="49.466515" lon="11.286551">
        <ele>447.173625</ele>
        <time>2021-12-21T12:48:51.615Z</time>
      </trkpt>
      <trkpt lat="49.466555" lon="11.286405">
        <ele>447.770147</ele>
        <time>2021-12-21T12:48:57.644Z</time>
      </trkpt>
      <trkpt lat="49.466511" lon="11.286260">
        <ele>447.494742</ele>
        <time>2021-12-21T12:49:02.613Z</time>
      </trkpt>
      <trkpt lat="49.466533" lon="11.286118">
        <ele>446.651383</ele>
        <time>2021-12-21T12:49:08.633Z</time>
      </trkpt>
      <trkpt lat="49.466574" lon="11.285984">
        <ele>445.795725</ele>
        <time>2021-12-21T12:49:13.615Z</time>
      </trkpt>
      <trkpt lat="49.466610" lon="11.285853">
        <ele>444.974026</ele>
        <time>2021-12-21T12:49:20.651Z</time>
      </trkpt>
      <trkpt lat="49.466656" lon="11.285727">
        <ele>444.139101</ele>
        <time>2021-12-21T12:49:27.625Z</time>
      </trkpt>
      <trkpt lat="49.466721" lon="11.285611">
        <ele>443.254233</ele>
        <time>2021-12-21T12:49:32.617Z</time>
      </trkpt>
      <trkpt lat="49.466762" lon="11.285466">
        <ele>442.340681</ele>
        <time>2021-12-21T12:49:39.626Z</time>
      </trkpt>
      <trkpt lat="49.466809" lon="11.285328">
        <ele>441.440580</ele>
        <time>2021-12-21T12:49:45.659Z</time>
      </trkpt>
      <trkpt lat="49.466835" lon="11.285189">
        <ele>440.604947</ele>
        <time>2021-12-21T12:49:50.622Z</time>
      </trkpt>
      <trkpt lat="49.466823" lon="11.285028">
        <ele>439.668718</ele>
        <time>2021-12-21T12:49:56.618Z</time>
      </trkpt>
      <trkpt lat="49.466840" lon="11.284887">
        <ele>438.840231</ele>
        <time>2021-12-21T12:50:01.615Z</time>
      </trkpt>
      <trkpt lat="49.466837" lon="11.284732">
        <ele>437.944366</ele>
        <time>2021-12-21T12:50:07.645Z</time>
      </trkpt>
      <trkpt lat="49.466869" lon="11.284595">
        <ele>437.103320</ele>
        <time>2021-12-21T12:50:13.614Z</time>
      </trkpt>
      <trkpt lat="49.466941" lon="11.284461">
        <ele>436.098848</ele>
        <time>2021-12-21T12:50:18.615Z</time>
      </trkpt>
      <trkpt lat="49.467008" lon="11.284340">
        <ele>435.180481</ele>
        <time>2021-12-21T12:50:23.647Z</time>
      </trkpt>
      <trkpt lat="49.467084" lon="11.284251">
        <ele>434.331473</ele>
        <time>2021-12-21T12:50:27.617Z</time>
      </trkpt>
      <trkpt lat="49.467125" lon="11.284096">
        <ele>433.364678</ele>
        <time>2021-12-21T12:50:38.620Z</time>
      </trkpt>
      <trkpt lat="49.467174" lon="11.283963">
        <ele>432.481433</ele>
        <time>2021-12-21T12:50:42.619Z</time>
      </trkpt>
      <trkpt lat="49.467217" lon="11.283812">
        <ele>432.383901</ele>
        <time>2021-12-21T12:50:48.615Z</time>
      </trkpt>
      <trkpt lat="49.467258" lon="11.283667">
        <ele>433.007377</ele>
        <time>2021-12-21T12:50:54.651Z</time>
      </trkpt>
      <trkpt lat="49.467299" lon="11.283524">
        <ele>433.623631</ele>
        <time>2021-12-21T12:51:00.625Z</time>
      </trkpt>
      <trkpt lat="49.467334" lon="11.283395">
        <ele>434.174798</ele>
        <time>2021-12-21T12:51:05.629Z</time>
      </trkpt>
      <trkpt lat="49.467381" lon="11.283275">
        <ele>434.727217</ele>
        <time>2021-12-21T12:51:10.637Z</time>
      </trkpt>
      <trkpt lat="49.467426" lon="11.283130">
        <ele>435.360765</ele>
        <time>2021-12-21T12:51:16.634Z</time>
      </trkpt>
      <trkpt lat="49.467420" lon="11.282981">
        <ele>435.949368</ele>
        <time>2021-12-21T12:51:23.623Z</time>
      </trkpt>
      <trkpt lat="49.467391" lon="11.282850">
        <ele>436.495018</ele>
        <time>2021-12-21T12:51:35.621Z</time>
      </trkpt>
      <trkpt lat="49.467352" lon="11.282702">
        <ele>437.124698</ele>
        <time>2021-12-21T12:51:41.625Z</time>
      </trkpt>
      <trkpt lat="49.467294" lon="11.282564">
        <ele>437.772675</ele>
        <time>2021-12-21T12:51:45.625Z</time>
      </trkpt>
      <trkpt lat="49.467233" lon="11.282429">
        <ele>438.420967</ele>
        <time>2021-12-21T12:51:50.654Z</time>
      </trkpt>
      <trkpt lat="49.467258" lon="11.282277">
        <ele>439.039169</ele>
        <time>2021-12-21T12:51:57.630Z</time>
      </trkpt>
      <trkpt lat="49.467262" lon="11.282119">
        <ele>439.662605</ele>
        <time>2021-12-21T12:52:03.638Z</time>
      </trkpt>
      <trkpt lat="49.467250" lon="11.281956">
        <ele>440.309393</ele>
        <time>2021-12-21T12:52:08.618Z</time>
      </trkpt>
      <trkpt lat="49.467231" lon="11.281790">
        <ele>440.973972</ele>
        <time>2021-12-21T12:52:15.643Z</time>
      </trkpt>
      <trkpt lat="49.467167" lon="11.281654">
        <ele>441.636015</ele>
        <time>2021-12-21T12:52:21.618Z</time>
      </trkpt>
      <trkpt lat="49.467112" lon="11.281507">
        <ele>442.304799</ele>
        <time>2021-12-21T12:52:25.617Z</time>
      </trkpt>
      <trkpt lat="49.467119" lon="11.281360">
        <ele>442.885947</ele>
        <time>2021-12-21T12:52:34.622Z</time>
      </trkpt>
      <trkpt lat="49.467198" lon="11.281233">
        <ele>442.903513</ele>
        <time>2021-12-21T12:52:40.619Z</time>
      </trkpt>
      <trkpt lat="49.467222" lon="11.281087">
        <ele>442.860236</ele>
        <time>2021-12-21T12:52:45.617Z</time>
      </trkpt>
      <trkpt lat="49.467221" lon="11.280924">
        <ele>442.813394</ele>
        <time>2021-12-21T12:52:51.618Z</time>
      </trkpt>
      <trkpt lat="49.467201" lon="11.280761">
        <ele>442.765726</ele>
        <time>2021-12-21T12:52:57.618Z</time>
      </trkpt>
      <trkpt lat="49.467169" lon="11.280618">
        <ele>442.722265</ele>
        <time>2021-12-21T12:53:03.626Z</time>
      </trkpt>
      <trkpt lat="49.467228" lon="11.280473">
        <ele>442.673104</ele>
        <time>2021-12-21T12:53:09.616Z</time>
      </trkpt>
      <trkpt lat="49.467285" lon="11.280360">
        <ele>442.631999</ele>
        <time>2021-12-21T12:53:15.619Z</time>
      </trkpt>
      <trkpt lat="49.467324" lon="11.280222">
        <ele>442.588755</ele>
        <time>2021-12-21T12:53:22.621Z</time>
      </trkpt>
      <trkpt lat="49.467418" lon="11.280149">
        <ele>442.542197</ele>
        <time>2021-12-21T12:53:28.618Z</time>
      </trkpt>
      <trkpt lat="49.467531" lon="11.280106">
        <ele>442.490726</ele>
        <time>2021-12-21T12:53:32.615Z</time>
      </trkpt>
      <trkpt lat="49.467624" lon="11.280056">
        <ele>442.447165</ele>
        <time>2021-12-21T12:53:36.645Z</time>
      </trkpt>
      <trkpt lat="49.467710" lon="11.279962">
        <ele>442.400521</ele>
        <time>2021-12-21T12:53:42.615Z</time>
      </trkpt>
      <trkpt lat="49.467750" lon="11.279804">
        <ele>442.351794</ele>
        <time>2021-12-21T12:53:48.617Z</time>
      </trkpt>
      <trkpt lat="49.467817" lon="11.279692">
        <ele>442.308051</ele>
        <time>2021-12-21T12:53:53.615Z</time>
      </trkpt>
      <trkpt lat="49.467878" lon="11.279573">
        <ele>442.264497</ele>
        <time>2021-12-21T12:53:57.630Z</time>
      </trkpt>
      <trkpt lat="49.467867" lon="11.279431">
        <ele>442.223403</ele>
        <time>2021-12-21T12:54:02.623Z</time>
      </trkpt>
      <trkpt lat="49.467907" lon="11.279299">
        <ele>442.181551</ele>
        <time>2021-12-21T12:54:08.657Z</time>
      </trkpt>
      <trkpt lat="49.467979" lon="11.279195">
        <ele>442.237190</ele>
        <time>2021-12-21T12:54:12.624Z</time>
      </trkpt>
      <trkpt lat="49.468043" lon="11.279080">
        <ele>442.460341</ele>
        <time>2021-12-21T12:54:18.618Z</time>
      </trkpt>
      <trkpt lat="49.468119" lon="11.278948">
        <ele>442.720262</ele>
        <time>2021-12-21T12:54:26.627Z</time>
      </trkpt>
      <trkpt lat="49.468139" lon="11.278805">
        <ele>442.935851</ele>
        <time>2021-12-21T12:54:32.619Z</time>
      </trkpt>
      <trkpt lat="49.468211" lon="11.278706">
        <ele>443.154836</ele>
        <time>2021-12-21T12:54:38.618Z</time>
      </trkpt>
      <trkpt lat="49.468297" lon="11.278639">
        <ele>443.373452</ele>
        <time>2021-12-21T12:54:43.617Z</time>
      </trkpt>
      <trkpt lat="49.468398" lon="11.278587">
        <ele>443.614995</ele>
        <time>2021-12-21T12:54:48.615Z</time>
      </trkpt>
      <trkpt lat="49.468455" lon="11.278469">
        <ele>443.831693</ele>
        <time>2021-12-21T12:54:53.616Z</time>
      </trkpt>
      <trkpt lat="49.468483" lon="11.278327">
        <ele>444.050402</ele>
        <time>2021-12-21T12:54:58.617Z</time>
      </trkpt>
      <trkpt lat="49.468530" lon="11.278194">
        <ele>444.273532</ele>
        <time>2021-12-21T12:55:04.621Z</time>
      </trkpt>
      <trkpt lat="49.468605" lon="11.278073">
        <ele>444.519979</ele>
        <time>2021-12-21T12:55:09.621Z</time>
      </trkpt>
      <trkpt lat="49.468646" lon="11.277934">
        <ele>444.744959</ele>
        <time>2021-12-21T12:55:14.620Z</time>
      </trkpt>
      <trkpt lat="49.468686" lon="11.277810">
        <ele>444.948993</ele>
        <time>2021-12-21T12:55:21.627Z</time>
      </trkpt>
      <trkpt lat="49.468764" lon="11.277707">
        <ele>445.182099</ele>
        <time>2021-12-21T12:55:27.613Z</time>
      </trkpt>
      <trkpt lat="49.468756" lon="11.277539">
        <ele>445.430370</ele>
        <time>2021-12-21T12:55:34.618Z</time>
      </trkpt>
      <trkpt lat="49.468733" lon="11.277397">
        <ele>445.646058</ele>
        <time>2021-12-21T12:55:39.618Z</time>
      </trkpt>
      <trkpt lat="49.468764" lon="11.277256">
        <ele>445.865442</ele>
        <time>2021-12-21T12:55:44.617Z</time>
      </trkpt>
      <trkpt lat="49.468667" lon="11.277203">
        <ele>446.098888</ele>
        <time>2021-12-21T12:55:49.618Z</time>
      </trkpt>
      <trkpt lat="49.468584" lon="11.277270">
        <ele>446.225273</ele>
        <time>2021-12-21T12:55:55.617Z</time>
      </trkpt>
      <trkpt lat="49.468494" lon="11.277338">
        <ele>446.201930</ele>
        <time>2021-12-21T12:56:01.614Z</time>
      </trkpt>
      <trkpt lat="49.468428" lon="11.277470">
        <ele>446.176732</ele>
        <time>2021-12-21T12:56:08.650Z</time>
      </trkpt>
      <trkpt lat="49.468347" lon="11.277554">
        <ele>446.153992</ele>
        <time>2021-12-21T12:56:15.621Z</time>
      </trkpt>
      <trkpt lat="49.468274" lon="11.277639">
        <ele>446.132680</ele>
        <time>2021-12-21T12:56:23.630Z</time>
      </trkpt>
      <trkpt lat="49.468195" lon="11.277733">
        <ele>446.109430</ele>
        <time>2021-12-21T12:56:28.617Z</time>
      </trkpt>
      <trkpt lat="49.468124" lon="11.277848">
        <ele>446.085431</ele>
        <time>2021-12-21T12:56:34.652Z</time>
      </trkpt>
      <trkpt lat="49.468030" lon="11.277928">
        <ele>446.060423</ele>
        <time>2021-12-21T12:56:39.656Z</time>
      </trkpt>
      <trkpt lat="49.467950" lon="11.277995">
        <ele>446.039218</ele>
        <time>2021-12-21T12:56:44.615Z</time>
      </trkpt>
      <trkpt lat="49.467889" lon="11.278102">
        <ele>446.017683</ele>
        <time>2021-12-21T12:56:49.625Z</time>
      </trkpt>
      <trkpt lat="49.467818" lon="11.278189">
        <ele>445.996553</ele>
        <time>2021-12-21T12:56:53.616Z</time>
      </trkpt>
      <trkpt lat="49.467743" lon="11.278265">
        <ele>445.975646</ele>
        <time>2021-12-21T12:56:58.615Z</time>
      </trkpt>
      <trkpt lat="49.467662" lon="11.278359">
        <ele>445.952027</ele>
        <time>2021-12-21T12:57:05.617Z</time>
      </trkpt>
      <trkpt lat="49.467584" lon="11.278437">
        <ele>445.930370</ele>
        <time>2021-12-21T12:57:10.615Z</time>
      </trkpt>
      <trkpt lat="49.467497" lon="11.278509">
        <ele>445.907372</ele>
        <time>2021-12-21T12:57:15.638Z</time>
      </trkpt>
      <trkpt lat="49.467411" lon="11.278611">
        <ele>445.882093</ele>
        <time>2021-12-21T12:57:21.613Z</time>
      </trkpt>
      <trkpt lat="49.467321" lon="11.278696">
        <ele>445.857508</ele>
        <time>2021-12-21T12:57:26.614Z</time>
      </trkpt>
      <trkpt lat="49.467249" lon="11.278792">
        <ele>445.835328</ele>
        <time>2021-12-21T12:57:30.627Z</time>
      </trkpt>
      <trkpt lat="49.467240" lon="11.278942">
        <ele>445.737630</ele>
        <time>2021-12-21T12:57:35.613Z</time>
      </trkpt>
      <trkpt lat="49.467195" lon="11.279082">
        <ele>444.836420</ele>
        <time>2021-12-21T12:57:44.627Z</time>
      </trkpt>
      <trkpt lat="49.467121" lon="11.279180">
        <ele>443.969576</ele>
        <time>2021-12-21T12:57:52.625Z</time>
      </trkpt>
      <trkpt lat="49.467015" lon="11.279242">
        <ele>442.962747</ele>
        <time>2021-12-21T12:58:00.616Z</time>
      </trkpt>
      <trkpt lat="49.466905" lon="11.279255">
        <ele>441.983227</ele>
        <time>2021-12-21T12:58:05.633Z</time>
      </trkpt>
      <trkpt lat="49.466811" lon="11.279309">
        <ele>441.092373</ele>
        <time>2021-12-21T12:58:10.622Z</time>
      </trkpt>
      <trkpt lat="49.466717" lon="11.279368">
        <ele>440.191024</ele>
        <time>2021-12-21T12:58:15.627Z</time>
      </trkpt>
      <trkpt lat="49.466621" lon="11.279431">
        <ele>439.264399</ele>
        <time>2021-12-21T12:58:21.621Z</time>
      </trkpt>
      <trkpt lat="49.466539" lon="11.279502">
        <ele>438.429004</ele>
        <time>2021-12-21T12:58:26.618Z</time>
      </trkpt>
      <trkpt lat="49.466452" lon="11.279575">
        <ele>437.549184</ele>
        <time>2021-12-21T12:58:31.622Z</time>
      </trkpt>
      <trkpt lat="49.466361" lon="11.279649">
        <ele>436.635343</ele>
        <time>2021-12-21T12:58:38.617Z</time>
      </trkpt>
      <trkpt lat="49.466278" lon="11.279719">
        <ele>435.794987</ele>
        <time>2021-12-21T12:58:43.614Z</time>
      </trkpt>
      <trkpt lat="49.466198" lon="11.279784">
        <ele>434.991758</ele>
        <time>2021-12-21T12:58:50.620Z</time>
      </trkpt>
      <trkpt lat="49.466129" lon="11.279887">
        <ele>434.138219</ele>
        <time>2021-12-21T12:58:58.645Z</time>
      </trkpt>
      <trkpt lat="49.466040" lon="11.279894">
        <ele>433.346993</ele>
        <time>2021-12-21T12:59:02.625Z</time>
      </trkpt>
      <trkpt lat="49.465955" lon="11.279942">
        <ele>432.543095</ele>
        <time>2021-12-21T12:59:05.626Z</time>
      </trkpt>
      <trkpt lat="49.465851" lon="11.279930">
        <ele>431.617130</ele>
        <time>2021-12-21T12:59:10.657Z</time>
      </trkpt>
      <trkpt lat="49.465763" lon="11.279883">
        <ele>430.790086</ele>
        <time>2021-12-21T12:59:15.629Z</time>
      </trkpt>
      <trkpt lat="49.465687" lon="11.279805">
        <ele>429.978984</ele>
        <time>2021-12-21T12:59:23.620Z</time>
      </trkpt>
      <trkpt lat="49.465647" lon="11.279649">
        <ele>429.669119</ele>
        <time>2021-12-21T12:59:35.637Z</time>
      </trkpt>
      <trkpt lat="49.465588" lon="11.279530">
        <ele>429.486792</ele>
        <time>2021-12-21T12:59:42.665Z</time>
      </trkpt>
      <trkpt lat="49.465498" lon="11.279438">
        <ele>429.284265</ele>
        <time>2021-12-21T12:59:47.644Z</time>
      </trkpt>
      <trkpt lat="49.465468" lon="11.279283">
        <ele>429.087255</ele>
        <time>2021-12-21T12:59:53.611Z</time>
      </trkpt>
      <trkpt lat="49.465445" lon="11.279143">
        <ele>428.911347</ele>
        <time>2021-12-21T12:59:58.617Z</time>
      </trkpt>
      <trkpt lat="49.465410" lon="11.279012">
        <ele>428.738810</ele>
        <time>2021-12-21T13:00:02.638Z</time>
      </trkpt>
      <trkpt lat="49.465382" lon="11.278868">
        <ele>428.555711</ele>
        <time>2021-12-21T13:00:06.619Z</time>
      </trkpt>
      <trkpt lat="49.465327" lon="11.278748">
        <ele>428.376837</ele>
        <time>2021-12-21T13:00:09.627Z</time>
      </trkpt>
      <trkpt lat="49.465259" lon="11.278658">
        <ele>428.208714</ele>
        <time>2021-12-21T13:00:11.618Z</time>
      </trkpt>
      <trkpt lat="49.465221" lon="11.278521">
        <ele>428.027262</ele>
        <time>2021-12-21T13:00:17.648Z</time>
      </trkpt>
      <trkpt lat="49.465270" lon="11.278383">
        <ele>427.835701</ele>
        <time>2021-12-21T13:00:22.617Z</time>
      </trkpt>
      <trkpt lat="49.465272" lon="11.278242">
        <ele>427.663899</ele>
        <time>2021-12-21T13:00:27.620Z</time>
      </trkpt>
      <trkpt lat="49.465276" lon="11.278080">
        <ele>427.466414</ele>
        <time>2021-12-21T13:00:33.613Z</time>
      </trkpt>
      <trkpt lat="49.465326" lon="11.277948">
        <ele>427.280298</ele>
        <time>2021-12-21T13:00:39.628Z</time>
      </trkpt>
      <trkpt lat="49.465368" lon="11.277817">
        <ele>427.102357</ele>
        <time>2021-12-21T13:00:46.621Z</time>
      </trkpt>
      <trkpt lat="49.465403" lon="11.277688">
        <ele>426.932069</ele>
        <time>2021-12-21T13:00:51.626Z</time>
      </trkpt>
      <trkpt lat="49.465404" lon="11.277538">
        <ele>426.749335</ele>
        <time>2021-12-21T13:00:56.617Z</time>
      </trkpt>
      <trkpt lat="49.465434" lon="11.277402">
        <ele>426.574382</ele>
        <time>2021-12-21T13:01:01.613Z</time>
      </trkpt>
      <trkpt lat="49.465448" lon="11.277238">
        <ele>426.349336</ele>
        <time>2021-12-21T13:01:07.625Z</time>
      </trkpt>
      <trkpt lat="49.465431" lon="11.277081">
        <ele>426.110216</ele>
        <time>2021-12-21T13:01:13.649Z</time>
      </trkpt>
      <trkpt lat="49.465399" lon="11.276934">
        <ele>425.877310</ele>
        <time>2021-12-21T13:01:17.647Z</time>
      </trkpt>
      <trkpt lat="49.465411" lon="11.276787">
        <ele>425.654729</ele>
        <time>2021-12-21T13:01:25.652Z</time>
      </trkpt>
      <trkpt lat="49.465453" lon="11.276654">
        <ele>425.432577</ele>
        <time>2021-12-21T13:01:30.619Z</time>
      </trkpt>
      <trkpt lat="49.465516" lon="11.276550">
        <ele>425.218985</ele>
        <time>2021-12-21T13:01:35.622Z</time>
      </trkpt>
      <trkpt lat="49.465531" lon="11.276380">
        <ele>424.961243</ele>
        <time>2021-12-21T13:01:40.614Z</time>
      </trkpt>
      <trkpt lat="49.465535" lon="11.276227">
        <ele>424.731197</ele>
        <time>2021-12-21T13:01:44.625Z</time>
      </trkpt>
      <trkpt lat="49.465583" lon="11.276103">
        <ele>424.514365</ele>
        <time>2021-12-21T13:01:48.665Z</time>
      </trkpt>
      <trkpt lat="49.465588" lon="11.275940">
        <ele>424.269209</ele>
        <time>2021-12-21T13:01:53.644Z</time>
      </trkpt>
      <trkpt lat="49.465595" lon="11.275795">
        <ele>424.050769</ele>
        <time>2021-12-21T13:01:57.613Z</time>
      </trkpt>
      <trkpt lat="49.465622" lon="11.275658">
        <ele>423.835692</ele>
        <time>2021-12-21T13:02:02.619Z</time>
      </trkpt>
      <trkpt lat="49.465640" lon="11.275513">
        <ele>423.613913</ele>
        <time>2021-12-21T13:02:10.642Z</time>
      </trkpt>
      <trkpt lat="49.465703" lon="11.275397">
        <ele>423.386801</ele>
        <time>2021-12-21T13:02:15.617Z</time>
      </trkpt>
      <trkpt lat="49.465724" lon="11.275248">
        <ele>423.157748</ele>
        <time>2021-12-21T13:02:21.617Z</time>
      </trkpt>
      <trkpt lat="49.465753" lon="11.275111">
        <ele>422.941285</ele>
        <time>2021-12-21T13:02:27.616Z</time>
      </trkpt>
      <trkpt lat="49.465722" lon="11.274978">
        <ele>422.729012</ele>
        <time>2021-12-21T13:02:31.614Z</time>
      </trkpt>
      <trkpt lat="49.465683" lon="11.274824">
        <ele>422.480706</ele>
        <time>2021-12-21T13:02:36.617Z</time>
      </trkpt>
      <trkpt lat="49.465643" lon="11.274689">
        <ele>422.315156</ele>
        <time>2021-12-21T13:02:41.617Z</time>
      </trkpt>
      <trkpt lat="49.465603" lon="11.274557">
        <ele>422.311923</ele>
        <time>2021-12-21T13:02:48.617Z</time>
      </trkpt>
      <trkpt lat="49.465590" lon="11.274420">
        <ele>422.308850</ele>
        <time>2021-12-21T13:02:55.639Z</time>
      </trkpt>
      <trkpt lat="49.465571" lon="11.274274">
        <ele>422.305545</ele>
        <time>2021-12-21T13:03:00.615Z</time>
      </trkpt>
      <trkpt lat="49.465581" lon="11.274114">
        <ele>422.301978</ele>
        <time>2021-12-21T13:03:06.617Z</time>
      </trkpt>
      <trkpt lat="49.465612" lon="11.273959">
        <ele>422.298378</ele>
        <time>2021-12-21T13:03:11.612Z</time>
      </trkpt>
      <trkpt lat="49.465598" lon="11.273820">
        <ele>422.295256</ele>
        <time>2021-12-21T13:03:17.616Z</time>
      </trkpt>
      <trkpt lat="49.465574" lon="11.273667">
        <ele>422.291763</ele>
        <time>2021-12-21T13:03:23.619Z</time>
      </trkpt>
      <trkpt lat="49.465559" lon="11.273510">
        <ele>422.288241</ele>
        <time>2021-12-21T13:03:29.615Z</time>
      </trkpt>
      <trkpt lat="49.465544" lon="11.273347">
        <ele>422.284587</ele>
        <time>2021-12-21T13:03:34.619Z</time>
      </trkpt>
      <trkpt lat="49.465529" lon="11.273184">
        <ele>422.280933</ele>
        <time>2021-12-21T13:03:41.615Z</time>
      </trkpt>
      <trkpt lat="49.465465" lon="11.273042">
        <ele>422.277098</ele>
        <time>2021-12-21T13:03:46.614Z</time>
      </trkpt>
      <trkpt lat="49.465422" lon="11.272910">
        <ele>422.273820</ele>
        <time>2021-12-21T13:03:51.652Z</time>
      </trkpt>
      <trkpt lat="49.465372" lon="11.272782">
        <ele>422.270506</ele>
        <time>2021-12-21T13:03:57.613Z</time>
      </trkpt>
      <trkpt lat="49.465355" lon="11.272638">
        <ele>422.267257</ele>
        <time>2021-12-21T13:04:04.616Z</time>
      </trkpt>
      <trkpt lat="49.465314" lon="11.272506">
        <ele>422.264010</ele>
        <time>2021-12-21T13:04:10.616Z</time>
      </trkpt>
      <trkpt lat="49.465330" lon="11.272361">
        <ele>422.260746</ele>
        <time>2021-12-21T13:04:18.642Z</time>
      </trkpt>
      <trkpt lat="49.465334" lon="11.272222">
        <ele>422.257658</ele>
        <time>2021-12-21T13:04:25.644Z</time>
      </trkpt>
      <trkpt lat="49.465315" lon="11.272074">
        <ele>422.213283</ele>
        <time>2021-12-21T13:04:29.624Z</time>
      </trkpt>
      <trkpt lat="49.465275" lon="11.271946">
        <ele>421.748697</ele>
        <time>2021-12-21T13:04:33.614Z</time>
      </trkpt>
      <trkpt lat="49.465219" lon="11.271801">
        <ele>421.196964</ele>
        <time>2021-12-21T13:04:38.613Z</time>
      </trkpt>
      <trkpt lat="49.465194" lon="11.271657">
        <ele>420.709411</ele>
        <time>2021-12-21T13:04:44.617Z</time>
      </trkpt>
      <trkpt lat="49.465132" lon="11.271556">
        <ele>420.254957</ele>
        <time>2021-12-21T13:04:50.634Z</time>
      </trkpt>
      <trkpt lat="49.465032" lon="11.271536">
        <ele>419.747409</ele>
        <time>2021-12-21T13:05:03.625Z</time>
      </trkpt>
      <trkpt lat="49.464932" lon="11.271555">
        <ele>419.240273</ele>
        <time>2021-12-21T13:05:08.615Z</time>
      </trkpt>
      <trkpt lat="49.464839" lon="11.271545">
        <ele>418.771049</ele>
        <time>2021-12-21T13:05:14.614Z</time>
      </trkpt>
      <trkpt lat="49.464735" lon="11.271523">
        <ele>418.242679</ele>
        <time>2021-12-21T13:05:19.644Z</time>
      </trkpt>
      <trkpt lat="49.464626" lon="11.271536">
        <ele>417.692422</ele>
        <time>2021-12-21T13:05:22.632Z</time>
      </trkpt>
      <trkpt lat="49.464522" lon="11.271541">
        <ele>417.168720</ele>
        <time>2021-12-21T13:05:26.621Z</time>
      </trkpt>
      <trkpt lat="49.464422" lon="11.271569">
        <ele>416.657141</ele>
        <time>2021-12-21T13:05:31.618Z</time>
      </trkpt>
      <trkpt lat="49.464339" lon="11.271512">
        <ele>416.199668</ele>
        <time>2021-12-21T13:05:37.616Z</time>
      </trkpt>
      <trkpt lat="49.464249" lon="11.271505">
        <ele>415.746108</ele>
        <time>2021-12-21T13:05:42.616Z</time>
      </trkpt>
      <trkpt lat="49.464159" lon="11.271498">
        <ele>415.292547</ele>
        <time>2021-12-21T13:05:47.618Z</time>
      </trkpt>
      <trkpt lat="49.464062" lon="11.271502">
        <ele>414.804158</ele>
        <time>2021-12-21T13:05:51.635Z</time>
      </trkpt>
      <trkpt lat="49.463960" lon="11.271472">
        <ele>414.281482</ele>
        <time>2021-12-21T13:05:57.623Z</time>
      </trkpt>
      <trkpt lat="49.463881" lon="11.271552">
        <ele>413.805475</ele>
        <time>2021-12-21T13:06:07.618Z</time>
      </trkpt>
      <trkpt lat="49.463598" lon="11.271553">
        <ele>413.254998</ele>
        <time>2021-12-21T13:06:35.629Z</time>
      </trkpt>
      <trkpt lat="49.463499" lon="11.271547">
        <ele>413.287339</ele>
        <time>2021-12-21T13:06:41.620Z</time>
      </trkpt>
      <trkpt lat="49.463404" lon="11.271555">
        <ele>413.318395</ele>
        <time>2021-12-21T13:06:47.617Z</time>
      </trkpt>
      <trkpt lat="49.463308" lon="11.271561">
        <ele>413.349758</ele>
        <time>2021-12-21T13:06:53.619Z</time>
      </trkpt>
      <trkpt lat="49.463220" lon="11.271584">
        <ele>413.378894</ele>
        <time>2021-12-21T13:06:58.616Z</time>
      </trkpt>
      <trkpt lat="49.463123" lon="11.271582">
        <ele>413.410560</ele>
        <time>2021-12-21T13:07:03.626Z</time>
      </trkpt>
      <trkpt lat="49.463030" lon="11.271583">
        <ele>413.440918</ele>
        <time>2021-12-21T13:07:09.617Z</time>
      </trkpt>
      <trkpt lat="49.462941" lon="11.271572">
        <ele>413.470063</ele>
        <time>2021-12-21T13:07:16.616Z</time>
      </trkpt>
      <trkpt lat="49.462838" lon="11.271607">
        <ele>413.504495</ele>
        <time>2021-12-21T13:07:23.622Z</time>
      </trkpt>
      <trkpt lat="49.462738" lon="11.271619">
        <ele>413.537236</ele>
        <time>2021-12-21T13:07:31.614Z</time>
      </trkpt>
      <trkpt lat="49.462647" lon="11.271646">
        <ele>413.567488</ele>
        <time>2021-12-21T13:07:37.614Z</time>
      </trkpt>
      <trkpt lat="49.462542" lon="11.271677">
        <ele>413.602388</ele>
        <time>2021-12-21T13:07:45.623Z</time>
      </trkpt>
      <trkpt lat="49.462444" lon="11.271690">
        <ele>413.634496</ele>
        <time>2021-12-21T13:07:50.628Z</time>
      </trkpt>
      <trkpt lat="49.462336" lon="11.271718">
        <ele>413.670246</ele>
        <time>2021-12-21T13:07:55.623Z</time>
      </trkpt>
      <trkpt lat="49.462241" lon="11.271685">
        <ele>413.702037</ele>
        <time>2021-12-21T13:08:02.644Z</time>
      </trkpt>
      <trkpt lat="49.462145" lon="11.271682">
        <ele>413.733380</ele>
        <time>2021-12-21T13:08:09.617Z</time>
      </trkpt>
      <trkpt lat="49.462055" lon="11.271719">
        <ele>413.763789</ele>
        <time>2021-12-21T13:08:18.643Z</time>
      </trkpt>
      <trkpt lat="49.461954" lon="11.271736">
        <ele>413.940218</ele>
        <time>2021-12-21T13:08:24.617Z</time>
      </trkpt>
      <trkpt lat="49.461862" lon="11.271710">
        <ele>414.513213</ele>
        <time>2021-12-21T13:08:27.614Z</time>
      </trkpt>
      <trkpt lat="49.461766" lon="11.271691">
        <ele>415.106129</ele>
        <time>2021-12-21T13:08:32.630Z</time>
      </trkpt>
      <trkpt lat="49.461656" lon="11.271678">
        <ele>415.781944</ele>
        <time>2021-12-21T13:08:37.639Z</time>
      </trkpt>
      <trkpt lat="49.461564" lon="11.271697">
        <ele>416.350566</ele>
        <time>2021-12-21T13:08:41.616Z</time>
      </trkpt>
      <trkpt lat="49.461468" lon="11.271684">
        <ele>416.940910</ele>
        <time>2021-12-21T13:08:46.630Z</time>
      </trkpt>
      <trkpt lat="49.461376" lon="11.271694">
        <ele>417.505882</ele>
        <time>2021-12-21T13:08:52.617Z</time>
      </trkpt>
      <trkpt lat="49.461275" lon="11.271706">
        <ele>418.126423</ele>
        <time>2021-12-21T13:09:02.650Z</time>
      </trkpt>
      <trkpt lat="49.461162" lon="11.271721">
        <ele>418.821202</ele>
        <time>2021-12-21T13:09:07.618Z</time>
      </trkpt>
      <trkpt lat="49.461060" lon="11.271741">
        <ele>419.451080</ele>
        <time>2021-12-21T13:09:12.615Z</time>
      </trkpt>
      <trkpt lat="49.460969" lon="11.271752">
        <ele>420.010240</ele>
        <time>2021-12-21T13:09:18.617Z</time>
      </trkpt>
      <trkpt lat="49.460851" lon="11.271756">
        <ele>420.733252</ele>
        <time>2021-12-21T13:09:26.646Z</time>
      </trkpt>
      <trkpt lat="49.460749" lon="11.271768">
        <ele>421.359900</ele>
        <time>2021-12-21T13:09:38.619Z</time>
      </trkpt>
      <trkpt lat="49.460651" lon="11.271786">
        <ele>421.964485</ele>
        <time>2021-12-21T13:09:45.623Z</time>
      </trkpt>
      <trkpt lat="49.460561" lon="11.271773">
        <ele>422.518225</ele>
        <time>2021-12-21T13:09:50.656Z</time>
      </trkpt>
      <trkpt lat="49.460457" lon="11.271783">
        <ele>423.156544</ele>
        <time>2021-12-21T13:09:54.617Z</time>
      </trkpt>
      <trkpt lat="49.460365" lon="11.271796">
        <ele>423.722483</ele>
        <time>2021-12-21T13:09:59.651Z</time>
      </trkpt>
      <trkpt lat="49.460272" lon="11.271802">
        <ele>424.292677</ele>
        <time>2021-12-21T13:10:03.618Z</time>
      </trkpt>
      <trkpt lat="49.460163" lon="11.271790">
        <ele>424.695715</ele>
        <time>2021-12-21T13:10:08.620Z</time>
      </trkpt>
      <trkpt lat="49.460068" lon="11.271779">
        <ele>424.277632</ele>
        <time>2021-12-21T13:10:12.619Z</time>
      </trkpt>
      <trkpt lat="49.459971" lon="11.271798">
        <ele>423.848514</ele>
        <time>2021-12-21T13:10:18.619Z</time>
      </trkpt>
      <trkpt lat="49.459866" lon="11.271768">
        <ele>423.379847</ele>
        <time>2021-12-21T13:10:24.618Z</time>
      </trkpt>
      <trkpt lat="49.459766" lon="11.271763">
        <ele>422.940768</ele>
        <time>2021-12-21T13:10:32.628Z</time>
      </trkpt>
      <trkpt lat="49.459666" lon="11.271749">
        <ele>422.500108</ele>
        <time>2021-12-21T13:10:40.622Z</time>
      </trkpt>
      <trkpt lat="49.459561" lon="11.271751">
        <ele>422.039283</ele>
        <time>2021-12-21T13:10:48.616Z</time>
      </trkpt>
      <trkpt lat="49.459455" lon="11.271745">
        <ele>421.573791</ele>
        <time>2021-12-21T13:10:52.617Z</time>
      </trkpt>
      <trkpt lat="49.459357" lon="11.271753">
        <ele>421.143116</ele>
        <time>2021-12-21T13:10:56.615Z</time>
      </trkpt>
      <trkpt lat="49.459256" lon="11.271771">
        <ele>420.696917</ele>
        <time>2021-12-21T13:11:03.614Z</time>
      </trkpt>
      <trkpt lat="49.459161" lon="11.271783">
        <ele>420.278610</ele>
        <time>2021-12-21T13:11:08.624Z</time>
      </trkpt>
      <trkpt lat="49.459057" lon="11.271786">
        <ele>419.822129</ele>
        <time>2021-12-21T13:11:13.618Z</time>
      </trkpt>
      <trkpt lat="49.458967" lon="11.271762">
        <ele>419.421277</ele>
        <time>2021-12-21T13:11:18.615Z</time>
      </trkpt>
      <trkpt lat="49.458872" lon="11.271755">
        <ele>419.003895</ele>
        <time>2021-12-21T13:11:24.614Z</time>
      </trkpt>
      <trkpt lat="49.458770" lon="11.271760">
        <ele>418.556044</ele>
        <time>2021-12-21T13:11:31.618Z</time>
      </trkpt>
      <trkpt lat="49.458655" lon="11.271749">
        <ele>418.050395</ele>
        <time>2021-12-21T13:11:38.644Z</time>
      </trkpt>
      <trkpt lat="49.458554" lon="11.271778">
        <ele>417.599507</ele>
        <time>2021-12-21T13:11:44.649Z</time>
      </trkpt>
      <trkpt lat="49.458447" lon="11.271767">
        <ele>417.128894</ele>
        <time>2021-12-21T13:11:49.627Z</time>
      </trkpt>
      <trkpt lat="49.458347" lon="11.271816">
        <ele>416.874683</ele>
        <time>2021-12-21T13:11:56.623Z</time>
      </trkpt>
      <trkpt lat="49.458244" lon="11.271832">
        <ele>416.802590</ele>
        <time>2021-12-21T13:12:03.613Z</time>
      </trkpt>
      <trkpt lat="49.458143" lon="11.271800">
        <ele>416.730779</ele>
        <time>2021-12-21T13:12:09.623Z</time>
      </trkpt>
      <trkpt lat="49.458051" lon="11.271803">
        <ele>416.666696</ele>
        <time>2021-12-21T13:12:14.634Z</time>
      </trkpt>
      <trkpt lat="49.457956" lon="11.271820">
        <ele>416.600093</ele>
        <time>2021-12-21T13:12:21.649Z</time>
      </trkpt>
      <trkpt lat="49.457862" lon="11.271797">
        <ele>416.533809</ele>
        <time>2021-12-21T13:12:27.649Z</time>
      </trkpt>
      <trkpt lat="49.457763" lon="11.271812">
        <ele>416.464533</ele>
        <time>2021-12-21T13:12:31.620Z</time>
      </trkpt>
      <trkpt lat="49.457664" lon="11.271840">
        <ele>416.394434</ele>
        <time>2021-12-21T13:12:36.614Z</time>
      </trkpt>
      <trkpt lat="49.457562" lon="11.271835">
        <ele>416.323366</ele>
        <time>2021-12-21T13:12:41.617Z</time>
      </trkpt>
      <trkpt lat="49.457458" lon="11.271815">
        <ele>416.250378</ele>
        <time>2021-12-21T13:12:46.623Z</time>
      </trkpt>
      <trkpt lat="49.457367" lon="11.271804">
        <ele>416.186811</ele>
        <time>2021-12-21T13:12:53.619Z</time>
      </trkpt>
      <trkpt lat="49.457272" lon="11.271800">
        <ele>416.120629</ele>
        <time>2021-12-21T13:12:59.618Z</time>
      </trkpt>
      <trkpt lat="49.457167" lon="11.271798">
        <ele>416.047502</ele>
        <time>2021-12-21T13:13:04.626Z</time>
      </trkpt>
      <trkpt lat="49.457077" lon="11.271754">
        <ele>415.981738</ele>
        <time>2021-12-21T13:13:09.651Z</time>
      </trkpt>
      <trkpt lat="49.456976" lon="11.271737">
        <ele>415.910983</ele>
        <time>2021-12-21T13:13:14.629Z</time>
      </trkpt>
      <trkpt lat="49.456881" lon="11.271762">
        <ele>415.843864</ele>
        <time>2021-12-21T13:13:18.615Z</time>
      </trkpt>
      <trkpt lat="49.456776" lon="11.271793">
        <ele>415.769409</ele>
        <time>2021-12-21T13:13:24.623Z</time>
      </trkpt>
      <trkpt lat="49.456683" lon="11.271853">
        <ele>415.699180</ele>
        <time>2021-12-21T13:13:32.654Z</time>
      </trkpt>
      <trkpt lat="49.456575" lon="11.271855">
        <ele>415.380385</ele>
        <time>2021-12-21T13:13:40.620Z</time>
      </trkpt>
      <trkpt lat="49.456480" lon="11.271840">
        <ele>414.877016</ele>
        <time>2021-12-21T13:13:46.617Z</time>
      </trkpt>
      <trkpt lat="49.456387" lon="11.271859">
        <ele>414.382516</ele>
        <time>2021-12-21T13:13:53.647Z</time>
      </trkpt>
      <trkpt lat="49.456289" lon="11.271823">
        <ele>413.851442</ele>
        <time>2021-12-21T13:13:58.645Z</time>
      </trkpt>
      <trkpt lat="49.456182" lon="11.271832">
        <ele>413.286610</ele>
        <time>2021-12-21T13:14:03.658Z</time>
      </trkpt>
      <trkpt lat="49.456134" lon="11.271965">
        <ele>412.765393</ele>
        <time>2021-12-21T13:14:10.650Z</time>
      </trkpt>
      <trkpt lat="49.456143" lon="11.272112">
        <ele>412.259503</ele>
        <time>2021-12-21T13:14:19.622Z</time>
      </trkpt>
      <trkpt lat="49.456151" lon="11.272273">
        <ele>411.706266</ele>
        <time>2021-12-21T13:14:25.650Z</time>
      </trkpt>
      <trkpt lat="49.456100" lon="11.272394">
        <ele>411.212163</ele>
        <time>2021-12-21T13:14:31.623Z</time>
      </trkpt>
      <trkpt lat="49.456049" lon="11.272519">
        <ele>410.706505</ele>
        <time>2021-12-21T13:14:37.616Z</time>
      </trkpt>
      <trkpt lat="49.456048" lon="11.272665">
        <ele>410.206242</ele>
        <time>2021-12-21T13:14:44.632Z</time>
      </trkpt>
      <trkpt lat="49.456063" lon="11.272824">
        <ele>409.655758</ele>
        <time>2021-12-21T13:14:51.660Z</time>
      </trkpt>
      <trkpt lat="49.456088" lon="11.272961">
        <ele>409.168214</ele>
        <time>2021-12-21T13:14:56.619Z</time>
      </trkpt>
      <trkpt lat="49.456099" lon="11.273100">
        <ele>408.688446</ele>
        <time>2021-12-21T13:15:01.661Z</time>
      </trkpt>
      <trkpt lat="49.456111" lon="11.273238">
        <ele>408.211410</ele>
        <time>2021-12-21T13:15:06.619Z</time>
      </trkpt>
      <trkpt lat="49.456123" lon="11.273377">
        <ele>407.730977</ele>
        <time>2021-12-21T13:15:11.660Z</time>
      </trkpt>
      <trkpt lat="49.456128" lon="11.273527">
        <ele>407.216362</ele>
        <time>2021-12-21T13:15:17.652Z</time>
      </trkpt>
      <trkpt lat="49.456133" lon="11.273681">
        <ele>406.688060</ele>
        <time>2021-12-21T13:15:24.655Z</time>
      </trkpt>
      <trkpt lat="49.456178" lon="11.273816">
        <ele>406.181353</ele>
        <time>2021-12-21T13:15:32.626Z</time>
      </trkpt>
      <trkpt lat="49.456215" lon="11.273948">
        <ele>406.214783</ele>
        <time>2021-12-21T13:15:38.614Z</time>
      </trkpt>
      <trkpt lat="49.456200" lon="11.274088">
        <ele>406.247781</ele>
        <time>2021-12-21T13:15:44.650Z</time>
      </trkpt>
      <trkpt lat="49.456209" lon="11.274245">
        <ele>406.284434</ele>
        <time>2021-12-21T13:15:49.621Z</time>
      </trkpt>
      <trkpt lat="49.456181" lon="11.274406">
        <ele>406.323192</ele>
        <time>2021-12-21T13:15:54.644Z</time>
      </trkpt>
      <trkpt lat="49.456169" lon="11.274557">
        <ele>406.358570</ele>
        <time>2021-12-21T13:16:01.618Z</time>
      </trkpt>
      <trkpt lat="49.456150" lon="11.274698">
        <ele>406.392058</ele>
        <time>2021-12-21T13:16:09.633Z</time>
      </trkpt>
      <trkpt lat="49.456120" lon="11.274832">
        <ele>406.425017</ele>
        <time>2021-12-21T13:16:14.649Z</time>
      </trkpt>
      <trkpt lat="49.456143" lon="11.274985">
        <ele>406.461538</ele>
        <time>2021-12-21T13:16:20.622Z</time>
      </trkpt>
      <trkpt lat="49.456172" lon="11.275121">
        <ele>406.494824</ele>
        <time>2021-12-21T13:16:25.634Z</time>
      </trkpt>
      <trkpt lat="49.456206" lon="11.275254">
        <ele>406.528060</ele>
        <time>2021-12-21T13:16:31.633Z</time>
      </trkpt>
      <trkpt lat="49.456219" lon="11.275407">
        <ele>406.563944</ele>
        <time>2021-12-21T13:16:36.621Z</time>
      </trkpt>
      <trkpt lat="49.456218" lon="11.275553">
        <ele>406.597899</ele>
        <time>2021-12-21T13:16:41.645Z</time>
      </trkpt>
      <trkpt lat="49.456262" lon="11.275698">
        <ele>406.635113</ele>
        <time>2021-12-21T13:16:49.626Z</time>
      </trkpt>
      <trkpt lat="49.456324" lon="11.275811">
        <ele>406.669502</ele>
        <time>2021-12-21T13:16:54.616Z</time>
      </trkpt>
      <trkpt lat="49.456379" lon="11.275929">
        <ele>406.703270</ele>
        <time>2021-12-21T13:17:00.617Z</time>
      </trkpt>
      <trkpt lat="49.456463" lon="11.276002">
        <ele>406.737786</ele>
        <time>2021-12-21T13:17:07.621Z</time>
      </trkpt>
      <trkpt lat="49.456542" lon="11.276102">
        <ele>406.774387</ele>
        <time>2021-12-21T13:17:13.622Z</time>
      </trkpt>
      <trkpt lat="49.456611" lon="11.276201">
        <ele>406.808142</ele>
        <time>2021-12-21T13:17:20.617Z</time>
      </trkpt>
      <trkpt lat="49.456683" lon="11.276309">
        <ele>407.037947</ele>
        <time>2021-12-21T13:17:26.663Z</time>
      </trkpt>
      <trkpt lat="49.456746" lon="11.276434">
        <ele>407.429301</ele>
        <time>2021-12-21T13:17:32.615Z</time>
      </trkpt>
      <trkpt lat="49.456811" lon="11.276553">
        <ele>407.813884</ele>
        <time>2021-12-21T13:17:38.632Z</time>
      </trkpt>
      <trkpt lat="49.456854" lon="11.276681">
        <ele>408.170379</ele>
        <time>2021-12-21T13:17:44.627Z</time>
      </trkpt>
      <trkpt lat="49.456858" lon="11.276836">
        <ele>408.554185</ele>
        <time>2021-12-21T13:17:51.626Z</time>
      </trkpt>
      <trkpt lat="49.456873" lon="11.276984">
        <ele>408.924794</ele>
        <time>2021-12-21T13:17:57.627Z</time>
      </trkpt>
      <trkpt lat="49.456891" lon="11.277139">
        <ele>409.314370</ele>
        <time>2021-12-21T13:18:03.625Z</time>
      </trkpt>
      <trkpt lat="49.456876" lon="11.277288">
        <ele>409.687423</ele>
        <time>2021-12-21T13:18:09.617Z</time>
      </trkpt>
      <trkpt lat="49.456870" lon="11.277439">
        <ele>410.061728</ele>
        <time>2021-12-21T13:18:15.648Z</time>
      </trkpt>
      <trkpt lat="49.456882" lon="11.277597">
        <ele>410.455314</ele>
        <time>2021-12-21T13:18:21.618Z</time>
      </trkpt>
      <trkpt lat="49.456889" lon="11.277736">
        <ele>410.800261</ele>
        <time>2021-12-21T13:18:26.617Z</time>
      </trkpt>
      <trkpt lat="49.456894" lon="11.277876">
        <ele>411.147173</ele>
        <time>2021-12-21T13:18:31.651Z</time>
      </trkpt>
      <trkpt lat="49.456907" lon="11.278024">
        <ele>411.516686</ele>
        <time>2021-12-21T13:18:37.631Z</time>
      </trkpt>
      <trkpt lat="49.456945" lon="11.278168">
        <ele>411.901214</ele>
        <time>2021-12-21T13:18:44.617Z</time>
      </trkpt>
      <trkpt lat="49.456980" lon="11.278297">
        <ele>412.247075</ele>
        <time>2021-12-21T13:18:50.618Z</time>
      </trkpt>
      <trkpt lat="49.456989" lon="11.278449">
        <ele>412.624713</ele>
        <time>2021-12-21T13:18:56.620Z</time>
      </trkpt>
      <trkpt lat="49.456995" lon="11.278593">
        <ele>412.981731</ele>
        <time>2021-12-21T13:19:02.614Z</time>
      </trkpt>
      <trkpt lat="49.457025" lon="11.278735">
        <ele>413.351160</ele>
        <time>2021-12-21T13:19:09.635Z</time>
      </trkpt>
      <trkpt lat="49.457043" lon="11.278893">
        <ele>413.728429</ele>
        <time>2021-12-21T13:19:16.622Z</time>
      </trkpt>
      <trkpt lat="49.457064" lon="11.279046">
        <ele>414.017691</ele>
        <time>2021-12-21T13:19:22.631Z</time>
      </trkpt>
      <trkpt lat="49.457081" lon="11.279184">
        <ele>414.277508</ele>
        <time>2021-12-21T13:19:28.613Z</time>
      </trkpt>
      <trkpt lat="49.457109" lon="11.279328">
        <ele>414.555544</ele>
        <time>2021-12-21T13:19:35.626Z</time>
      </trkpt>
      <trkpt lat="49.457138" lon="11.279487">
        <ele>414.861023</ele>
        <time>2021-12-21T13:19:40.628Z</time>
      </trkpt>
      <trkpt lat="49.457211" lon="11.279602">
        <ele>415.158361</ele>
        <time>2021-12-21T13:19:47.625Z</time>
      </trkpt>
      <trkpt lat="49.457262" lon="11.279723">
        <ele>415.425124</ele>
        <time>2021-12-21T13:19:52.615Z</time>
      </trkpt>
      <trkpt lat="49.457292" lon="11.279860">
        <ele>415.692541</ele>
        <time>2021-12-21T13:20:00.623Z</time>
      </trkpt>
      <trkpt lat="49.457303" lon="11.280007">
        <ele>415.966258</ele>
        <time>2021-12-21T13:20:09.613Z</time>
      </trkpt>
      <trkpt lat="49.457332" lon="11.280154">
        <ele>416.250427</ele>
        <time>2021-12-21T13:20:18.617Z</time>
      </trkpt>
      <trkpt lat="49.457401" lon="11.280290">
        <ele>416.569560</ele>
        <time>2021-12-21T13:20:24.624Z</time>
      </trkpt>
      <trkpt lat="49.457441" lon="11.280438">
        <ele>416.866053</ele>
        <time>2021-12-21T13:20:30.652Z</time>
      </trkpt>
      <trkpt lat="49.457488" lon="11.280556">
        <ele>417.122049</ele>
        <time>2021-12-21T13:20:35.661Z</time>
      </trkpt>
      <trkpt lat="49.457544" lon="11.280681">
        <ele>417.402872</ele>
        <time>2021-12-21T13:20:42.634Z</time>
      </trkpt>
      <trkpt lat="49.457569" lon="11.280837">
        <ele>417.700081</ele>
        <time>2021-12-21T13:20:47.630Z</time>
      </trkpt>
      <trkpt lat="49.457582" lon="11.280993">
        <ele>417.991010</ele>
        <time>2021-12-21T13:20:53.616Z</time>
      </trkpt>
      <trkpt lat="49.457597" lon="11.281130">
        <ele>418.248002</ele>
        <time>2021-12-21T13:20:58.614Z</time>
      </trkpt>
      <trkpt lat="49.457644" lon="11.281263">
        <ele>418.528031</ele>
        <time>2021-12-21T13:21:02.649Z</time>
      </trkpt>
      <trkpt lat="49.457680" lon="11.281411">
        <ele>418.788142</ele>
        <time>2021-12-21T13:21:08.646Z</time>
      </trkpt>
      <trkpt lat="49.457757" lon="11.281511">
        <ele>418.781484</ele>
        <time>2021-12-21T13:21:15.616Z</time>
      </trkpt>
      <trkpt lat="49.457788" lon="11.281644">
        <ele>418.775415</ele>
        <time>2021-12-21T13:21:22.626Z</time>
      </trkpt>
      <trkpt lat="49.457821" lon="11.281783">
        <ele>418.769059</ele>
        <time>2021-12-21T13:21:29.618Z</time>
      </trkpt>
      <trkpt lat="49.457848" lon="11.281922">
        <ele>418.762828</ele>
        <time>2021-12-21T13:21:36.618Z</time>
      </trkpt>
      <trkpt lat="49.457886" lon="11.282047">
        <ele>418.756900</ele>
        <time>2021-12-21T13:21:42.619Z</time>
      </trkpt>
      <trkpt lat="49.457925" lon="11.282193">
        <ele>418.750121</ele>
        <time>2021-12-21T13:21:48.623Z</time>
      </trkpt>
      <trkpt lat="49.457989" lon="11.282321">
        <ele>418.743184</ele>
        <time>2021-12-21T13:21:53.614Z</time>
      </trkpt>
      <trkpt lat="49.458030" lon="11.282463">
        <ele>418.736511</ele>
        <time>2021-12-21T13:21:59.624Z</time>
      </trkpt>
      <trkpt lat="49.458048" lon="11.282610">
        <ele>418.730086</ele>
        <time>2021-12-21T13:22:04.628Z</time>
      </trkpt>
      <trkpt lat="49.458067" lon="11.282751">
        <ele>418.723901</ele>
        <time>2021-12-21T13:22:10.618Z</time>
      </trkpt>
      <trkpt lat="49.458091" lon="11.282911">
        <ele>418.716848</ele>
        <time>2021-12-21T13:22:16.620Z</time>
      </trkpt>
      <trkpt lat="49.458114" lon="11.283049">
        <ele>418.710729</ele>
        <time>2021-12-21T13:22:22.613Z</time>
      </trkpt>
      <trkpt lat="49.458160" lon="11.283181">
        <ele>418.704296</ele>
        <time>2021-12-21T13:22:29.621Z</time>
      </trkpt>
      <trkpt lat="49.458214" lon="11.283307">
        <ele>418.697813</ele>
        <time>2021-12-21T13:22:33.622Z</time>
      </trkpt>
      <trkpt lat="49.458214" lon="11.283463">
        <ele>418.691113</ele>
        <time>2021-12-21T13:22:40.618Z</time>
      </trkpt>
      <trkpt lat="49.458253" lon="11.283600">
        <ele>418.684689</ele>
        <time>2021-12-21T13:22:48.618Z</time>
      </trkpt>
      <trkpt lat="49.458324" lon="11.283706">
        <ele>418.678151</ele>
        <time>2021-12-21T13:22:55.657Z</time>
      </trkpt>
      <trkpt lat="49.458413" lon="11.283789">
        <ele>418.671274</ele>
        <time>2021-12-21T13:23:01.630Z</time>
      </trkpt>
      <trkpt lat="49.458496" lon="11.283879">
        <ele>419.198902</ele>
        <time>2021-12-21T13:23:08.616Z</time>
      </trkpt>
      <trkpt lat="49.458576" lon="11.283962">
        <ele>419.816962</ele>
        <time>2021-12-21T13:23:15.666Z</time>
      </trkpt>
      <trkpt lat="49.458629" lon="11.284078">
        <ele>420.407300</ele>
        <time>2021-12-21T13:23:21.660Z</time>
      </trkpt>
      <trkpt lat="49.458708" lon="11.284159">
        <ele>421.015403</ele>
        <time>2021-12-21T13:23:25.614Z</time>
      </trkpt>
      <trkpt lat="49.458793" lon="11.284255">
        <ele>421.690815</ele>
        <time>2021-12-21T13:23:30.633Z</time>
      </trkpt>
      <trkpt lat="49.458874" lon="11.284339">
        <ele>422.316513</ele>
        <time>2021-12-21T13:23:35.624Z</time>
      </trkpt>
      <trkpt lat="49.458962" lon="11.284386">
        <ele>422.913182</ele>
        <time>2021-12-21T13:23:40.619Z</time>
      </trkpt>
      <trkpt lat="49.459049" lon="11.284436">
        <ele>423.508060</ele>
        <time>2021-12-21T13:23:46.665Z</time>
      </trkpt>
      <trkpt lat="49.459124" lon="11.284531">
        <ele>424.130333</ele>
        <time>2021-12-21T13:23:53.616Z</time>
      </trkpt>
      <trkpt lat="49.459210" lon="11.284616">
        <ele>424.785072</ele>
        <time>2021-12-21T13:24:00.630Z</time>
      </trkpt>
      <trkpt lat="49.459291" lon="11.284692">
        <ele>425.392779</ele>
        <time>2021-12-21T13:24:05.662Z</time>
      </trkpt>
      <trkpt lat="49.459370" lon="11.284765">
        <ele>425.983059</ele>
        <time>2021-12-21T13:24:10.642Z</time>
      </trkpt>
      <trkpt lat="49.459462" lon="11.284819">
        <ele>426.613780</ele>
        <time>2021-12-21T13:24:19.614Z</time>
      </trkpt>
      <trkpt lat="49.459545" lon="11.284910">
        <ele>427.266608</ele>
        <time>2021-12-21T13:24:26.617Z</time>
      </trkpt>
      <trkpt lat="49.459615" lon="11.285021">
        <ele>427.910508</ele>
        <time>2021-12-21T13:24:32.635Z</time>
      </trkpt>
      <trkpt lat="49.459698" lon="11.285101">
        <ele>428.537867</ele>
        <time>2021-12-21T13:24:38.614Z</time>
      </trkpt>
      <trkpt lat="49.459771" lon="11.285185">
        <ele>429.121773</ele>
        <time>2021-12-21T13:24:43.624Z</time>
      </trkpt>
      <trkpt lat="49.459837" lon="11.285282">
        <ele>429.706418</ele>
        <time>2021-12-21T13:24:50.633Z</time>
      </trkpt>
      <trkpt lat="49.459879" lon="11.285416">
        <ele>430.194070</ele>
        <time>2021-12-21T13:24:58.617Z</time>
      </trkpt>
      <trkpt lat="49.459924" lon="11.285539">
        <ele>430.207707</ele>
        <time>2021-12-21T13:25:01.648Z</time>
      </trkpt>
      <trkpt lat="49.459972" lon="11.285678">
        <ele>430.222914</ele>
        <time>2021-12-21T13:25:06.640Z</time>
      </trkpt>
      <trkpt lat="49.460013" lon="11.285831">
        <ele>430.238904</ele>
        <time>2021-12-21T13:25:12.657Z</time>
      </trkpt>
      <trkpt lat="49.460035" lon="11.285985">
        <ele>430.254138</ele>
        <time>2021-12-21T13:25:18.615Z</time>
      </trkpt>
      <trkpt lat="49.460054" lon="11.286131">
        <ele>430.268524</ele>
        <time>2021-12-21T13:25:24.671Z</time>
      </trkpt>
      <trkpt lat="49.460084" lon="11.286266">
        <ele>430.282308</ele>
        <time>2021-12-21T13:25:30.660Z</time>
      </trkpt>
      <trkpt lat="49.460118" lon="11.286404">
        <ele>430.296567</ele>
        <time>2021-12-21T13:25:36.675Z</time>
      </trkpt>
      <trkpt lat="49.460156" lon="11.286554">
        <ele>430.312122</ele>
        <time>2021-12-21T13:25:42.620Z</time>
      </trkpt>
      <trkpt lat="49.460200" lon="11.286698">
        <ele>430.327495</ele>
        <time>2021-12-21T13:25:49.656Z</time>
      </trkpt>
      <trkpt lat="49.460240" lon="11.286849">
        <ele>430.343249</ele>
        <time>2021-12-21T13:25:55.627Z</time>
      </trkpt>
      <trkpt lat="49.460282" lon="11.286976">
        <ele>430.357016</ele>
        <time>2021-12-21T13:26:01.631Z</time>
      </trkpt>
      <trkpt lat="49.460327" lon="11.287101">
        <ele>430.370822</ele>
        <time>2021-12-21T13:26:06.655Z</time>
      </trkpt>
      <trkpt lat="49.460346" lon="11.287240">
        <ele>430.384546</ele>
        <time>2021-12-21T13:26:12.625Z</time>
      </trkpt>
      <trkpt lat="49.460392" lon="11.287383">
        <ele>430.399961</ele>
        <time>2021-12-21T13:26:19.614Z</time>
      </trkpt>
      <trkpt lat="49.460457" lon="11.287483">
        <ele>430.413625</ele>
        <time>2021-12-21T13:26:27.649Z</time>
      </trkpt>
      <trkpt lat="49.460526" lon="11.287584">
        <ele>430.427782</ele>
        <time>2021-12-21T13:26:35.619Z</time>
      </trkpt>
      <trkpt lat="49.460579" lon="11.287724">
        <ele>430.443435</ele>
        <time>2021-12-21T13:26:41.628Z</time>
      </trkpt>
      <trkpt lat="49.460635" lon="11.287852">
        <ele>430.458302</ele>
        <time>2021-12-21T13:26:46.624Z</time>
      </trkpt>
      <trkpt lat="49.460709" lon="11.287951">
        <ele>430.458302</ele>
        <time>2021-12-21T13:26:51.628Z</time>
      </trkpt>
      <trkpt lat="49.460779" lon="11.288076">
        <ele>430.458302</ele>
        <time>2021-12-21T13:26:57.623Z</time>
      </trkpt>
      <trkpt lat="49.460820" lon="11.288202">
        <ele>430.458302</ele>
        <time>2021-12-21T13:27:01.621Z</time>
      </trkpt>
      <trkpt lat="49.460847" lon="11.288354">
        <ele>430.458302</ele>
        <time>2021-12-21T13:27:07.627Z</time>
      </trkpt>
      <trkpt lat="49.460869" lon="11.288496">
        <ele>430.458302</ele>
        <time>2021-12-21T13:27:12.622Z</time>
      </trkpt>
      <trkpt lat="49.460904" lon="11.288638">
        <ele>430.458302</ele>
        <time>2021-12-21T13:27:18.616Z</time>
      </trkpt>
      <trkpt lat="49.460954" lon="11.288788">
        <ele>430.458302</ele>
        <time>2021-12-21T13:27:24.629Z</time>
      </trkpt>
      <trkpt lat="49.460982" lon="11.288930">
        <ele>430.458302</ele>
        <time>2021-12-21T13:27:29.648Z</time>
      </trkpt>
      <trkpt lat="49.460977" lon="11.289081">
        <ele>430.458302</ele>
        <time>2021-12-21T13:27:36.654Z</time>
      </trkpt>
      <trkpt lat="49.461168" lon="11.288999">
        <ele>430.458302</ele>
        <time>2021-12-21T13:28:38.806Z</time>
      </trkpt>
    </trkseg>
  </trk>
</gpx>